sensor_id;sensor_type;location;lat;lon;timestamp;pressure;altitude;pressure_sealevel;temperature;humidity
62103;BME280;48077;48.104;11.702;2022-07-03T00:01:27;95783.72;;;13.09;84.45
62103;BME280;48077;48.104;11.702;2022-07-03T00:03:51;95794.78;;;13.13;84.76
62103;BME280;48077;48.104;11.702;2022-07-03T00:06:14;95798.19;;;13.08;85.03
62103;BME280;48077;48.104;11.702;2022-07-03T00:08:38;95795.63;;;13.02;85.23
62103;BME280;48077;48.104;11.702;2022-07-03T00:11:01;95774.88;;;12.92;85.31
62103;BME280;48077;48.104;11.702;2022-07-03T00:13:25;95801.25;;;13.00;85.40
62103;BME280;48077;48.104;11.702;2022-07-03T00:15:48;95786.72;;;12.96;85.53
62103;BME280;48077;48.104;11.702;2022-07-03T00:18:11;95789.97;;;12.98;85.73
62103;BME280;48077;48.104;11.702;2022-07-03T00:20:40;95791.94;;;13.03;85.95
62103;BME280;48077;48.104;11.702;2022-07-03T00:23:07;95773.72;;;12.88;85.68
62103;BME280;48077;48.104;11.702;2022-07-03T00:25:33;95792.88;;;12.96;86.17
62103;BME280;48077;48.104;11.702;2022-07-03T00:27:56;95787.19;;;12.93;86.30
62103;BME280;48077;48.104;11.702;2022-07-03T00:30:20;95787.53;;;12.96;86.18
62103;BME280;48077;48.104;11.702;2022-07-03T00:32:44;95780.06;;;12.99;86.29
62103;BME280;48077;48.104;11.702;2022-07-03T00:35:10;95782.81;;;13.04;86.07
62103;BME280;48077;48.104;11.702;2022-07-03T00:37:39;95772.84;;;12.99;86.30
62103;BME280;48077;48.104;11.702;2022-07-03T00:40:03;95784.31;;;13.11;85.82
62103;BME280;48077;48.104;11.702;2022-07-03T00:42:27;95776.03;;;13.13;85.55
62103;BME280;48077;48.104;11.702;2022-07-03T00:44:56;95786.03;;;13.18;85.82
62103;BME280;48077;48.104;11.702;2022-07-03T00:47:21;95779.28;;;13.15;85.85
62103;BME280;48077;48.104;11.702;2022-07-03T00:49:48;95781.81;;;13.22;86.02
62103;BME280;48077;48.104;11.702;2022-07-03T00:52:12;95787.72;;;13.24;85.94
62103;BME280;48077;48.104;11.702;2022-07-03T00:54:39;95787.59;;;13.30;85.70
62103;BME280;48077;48.104;11.702;2022-07-03T00:57:07;95787.50;;;13.25;86.07
62103;BME280;48077;48.104;11.702;2022-07-03T00:59:36;95783.91;;;13.20;85.80
62103;BME280;48077;48.104;11.702;2022-07-03T01:02:03;95795.03;;;13.28;86.02
62103;BME280;48077;48.104;11.702;2022-07-03T01:04:51;95775.88;;;13.20;86.17
62103;BME280;48077;48.104;11.702;2022-07-03T01:10:09;95767.75;;;13.14;86.66
62103;BME280;48077;48.104;11.702;2022-07-03T01:17:59;95755.75;;;13.17;86.61
62103;BME280;48077;48.104;11.702;2022-07-03T01:20:27;95770.59;;;13.25;86.64
62103;BME280;48077;48.104;11.702;2022-07-03T01:22:54;95761.53;;;13.26;86.92
62103;BME280;48077;48.104;11.702;2022-07-03T01:25:24;95777.13;;;13.46;86.69
62103;BME280;48077;48.104;11.702;2022-07-03T01:28:13;95782.47;;;13.46;86.50
62103;BME280;48077;48.104;11.702;2022-07-03T01:30:44;95780.53;;;13.41;86.48
62103;BME280;48077;48.104;11.702;2022-07-03T01:35:47;95781.44;;;13.47;86.55
62103;BME280;48077;48.104;11.702;2022-07-03T01:38:20;95755.22;;;13.32;86.79
62103;BME280;48077;48.104;11.702;2022-07-03T01:40:44;95783.16;;;13.53;86.85
62103;BME280;48077;48.104;11.702;2022-07-03T01:43:12;95780.53;;;13.58;86.82
62103;BME280;48077;48.104;11.702;2022-07-03T01:45:43;95780.31;;;13.60;86.99
62103;BME280;48077;48.104;11.702;2022-07-03T01:48:07;95776.41;;;13.67;86.69
62103;BME280;48077;48.104;11.702;2022-07-03T01:50:32;95758.38;;;13.63;87.08
62103;BME280;48077;48.104;11.702;2022-07-03T01:52:56;95754.31;;;13.60;86.94
62103;BME280;48077;48.104;11.702;2022-07-03T01:55:23;95763.41;;;13.59;87.22
62103;BME280;48077;48.104;11.702;2022-07-03T01:57:49;95773.41;;;13.64;87.33
62103;BME280;48077;48.104;11.702;2022-07-03T02:00:16;95750.59;;;13.44;87.95
62103;BME280;48077;48.104;11.702;2022-07-03T02:02:43;95764.28;;;13.48;88.25
62103;BME280;48077;48.104;11.702;2022-07-03T02:05:22;95760.19;;;13.40;88.49
62103;BME280;48077;48.104;11.702;2022-07-03T02:08:00;95745.34;;;13.21;88.73
62103;BME280;48077;48.104;11.702;2022-07-03T02:10:29;95768.03;;;13.30;89.13
62103;BME280;48077;48.104;11.702;2022-07-03T02:13:00;95765.25;;;13.25;89.21
62103;BME280;48077;48.104;11.702;2022-07-03T02:15:32;95769.44;;;13.21;89.42
62103;BME280;48077;48.104;11.702;2022-07-03T02:17:57;95772.97;;;13.21;89.56
62103;BME280;48077;48.104;11.702;2022-07-03T02:20:22;95770.91;;;13.11;90.30
62103;BME280;48077;48.104;11.702;2022-07-03T02:25:26;95771.72;;;13.12;90.49
62103;BME280;48077;48.104;11.702;2022-07-03T02:27:55;95780.09;;;13.15;90.67
62103;BME280;48077;48.104;11.702;2022-07-03T02:30:18;95776.59;;;13.15;90.58
62103;BME280;48077;48.104;11.702;2022-07-03T02:32:49;95776.28;;;13.11;90.90
62103;BME280;48077;48.104;11.702;2022-07-03T02:35:17;95783.56;;;13.16;90.70
62103;BME280;48077;48.104;11.702;2022-07-03T02:37:45;95739.97;;;12.87;90.61
62103;BME280;48077;48.104;11.702;2022-07-03T02:40:20;95768.88;;;13.02;90.89
62103;BME280;48077;48.104;11.702;2022-07-03T02:42:58;95771.66;;;13.07;90.89
62103;BME280;48077;48.104;11.702;2022-07-03T02:45:31;95784.72;;;13.20;90.56
62103;BME280;48077;48.104;11.702;2022-07-03T02:48:02;95768.00;;;13.13;90.12
62103;BME280;48077;48.104;11.702;2022-07-03T02:50:31;95761.41;;;13.04;89.66
62103;BME280;48077;48.104;11.702;2022-07-03T02:52:59;95795.09;;;13.16;90.12
62103;BME280;48077;48.104;11.702;2022-07-03T02:55:39;95797.47;;;13.13;90.37
62103;BME280;48077;48.104;11.702;2022-07-03T03:00:33;95770.31;;;12.92;90.76
62103;BME280;48077;48.104;11.702;2022-07-03T03:02:58;95786.56;;;13.03;90.44
62103;BME280;48077;48.104;11.702;2022-07-03T03:05:37;95793.63;;;13.09;90.34
62103;BME280;48077;48.104;11.702;2022-07-03T03:10:42;95808.91;;;13.08;90.21
62103;BME280;48077;48.104;11.702;2022-07-03T03:13:12;95803.66;;;13.02;90.30
62103;BME280;48077;48.104;11.702;2022-07-03T03:15:37;95801.00;;;13.02;90.43
62103;BME280;48077;48.104;11.702;2022-07-03T03:18:09;95808.34;;;13.06;90.42
62103;BME280;48077;48.104;11.702;2022-07-03T03:20:35;95805.66;;;13.06;90.75
62103;BME280;48077;48.104;11.702;2022-07-03T03:23:34;95774.75;;;12.87;91.17
62103;BME280;48077;48.104;11.702;2022-07-03T03:25:58;95795.44;;;12.91;90.95
62103;BME280;48077;48.104;11.702;2022-07-03T03:28:22;95783.59;;;12.87;91.14
62103;BME280;48077;48.104;11.702;2022-07-03T03:30:45;95787.81;;;12.83;91.20
62103;BME280;48077;48.104;11.702;2022-07-03T03:33:09;95791.53;;;12.82;91.36
62103;BME280;48077;48.104;11.702;2022-07-03T03:35:35;95793.66;;;12.80;91.69
62103;BME280;48077;48.104;11.702;2022-07-03T03:37:58;95807.94;;;12.86;91.77
62103;BME280;48077;48.104;11.702;2022-07-03T03:40:22;95807.59;;;12.82;91.70
62103;BME280;48077;48.104;11.702;2022-07-03T03:42:45;95798.34;;;12.73;92.09
62103;BME280;48077;48.104;11.702;2022-07-03T03:45:09;95812.75;;;12.72;91.90
62103;BME280;48077;48.104;11.702;2022-07-03T03:47:33;95806.59;;;12.71;92.13
62103;BME280;48077;48.104;11.702;2022-07-03T03:49:56;95824.63;;;12.76;92.14
62103;BME280;48077;48.104;11.702;2022-07-03T03:52:20;95818.47;;;12.75;91.65
62103;BME280;48077;48.104;11.702;2022-07-03T03:54:44;95791.28;;;12.55;91.55
62103;BME280;48077;48.104;11.702;2022-07-03T03:57:20;95828.94;;;12.77;91.54
62103;BME280;48077;48.104;11.702;2022-07-03T03:59:44;95814.63;;;12.71;91.63
62103;BME280;48077;48.104;11.702;2022-07-03T04:02:07;95816.88;;;12.63;91.52
62103;BME280;48077;48.104;11.702;2022-07-03T04:04:31;95802.81;;;12.55;91.90
62103;BME280;48077;48.104;11.702;2022-07-03T04:06:54;95810.69;;;12.62;91.93
62103;BME280;48077;48.104;11.702;2022-07-03T04:09:18;95841.41;;;12.71;92.11
62103;BME280;48077;48.104;11.702;2022-07-03T04:11:41;95822.22;;;12.63;92.68
62103;BME280;48077;48.104;11.702;2022-07-03T04:14:04;95831.41;;;12.67;92.95
62103;BME280;48077;48.104;11.702;2022-07-03T04:16:28;95837.66;;;12.72;92.72
62103;BME280;48077;48.104;11.702;2022-07-03T04:18:51;95821.97;;;12.64;93.16
62103;BME280;48077;48.104;11.702;2022-07-03T04:21:14;95826.63;;;12.69;93.21
62103;BME280;48077;48.104;11.702;2022-07-03T04:23:38;95822.44;;;12.73;93.47
62103;BME280;48077;48.104;11.702;2022-07-03T04:26:05;95836.09;;;12.88;92.98
62103;BME280;48077;48.104;11.702;2022-07-03T04:28:28;95839.16;;;12.80;92.74
62103;BME280;48077;48.104;11.702;2022-07-03T04:30:52;95846.88;;;12.93;92.04
62103;BME280;48077;48.104;11.702;2022-07-03T04:33:15;95845.81;;;13.06;92.08
62103;BME280;48077;48.104;11.702;2022-07-03T04:35:39;95824.84;;;13.03;91.72
62103;BME280;48077;48.104;11.702;2022-07-03T04:38:02;95829.09;;;13.16;91.88
62103;BME280;48077;48.104;11.702;2022-07-03T04:40:26;95840.56;;;13.28;92.17
62103;BME280;48077;48.104;11.702;2022-07-03T04:42:49;95839.41;;;13.36;92.19
62103;BME280;48077;48.104;11.702;2022-07-03T04:45:12;95832.28;;;13.42;92.26
62103;BME280;48077;48.104;11.702;2022-07-03T04:47:36;95827.22;;;13.45;92.67
62103;BME280;48077;48.104;11.702;2022-07-03T04:49:59;95827.41;;;13.55;92.99
62103;BME280;48077;48.104;11.702;2022-07-03T04:52:23;95847.00;;;13.73;93.09
62103;BME280;48077;48.104;11.702;2022-07-03T04:54:46;95821.97;;;13.67;93.26
62103;BME280;48077;48.104;11.702;2022-07-03T04:57:10;95839.41;;;13.87;93.01
62103;BME280;48077;48.104;11.702;2022-07-03T04:59:33;95856.06;;;14.06;92.86
62103;BME280;48077;48.104;11.702;2022-07-03T05:01:56;95853.28;;;14.17;93.17
62103;BME280;48077;48.104;11.702;2022-07-03T05:04:20;95860.97;;;14.31;93.01
62103;BME280;48077;48.104;11.702;2022-07-03T05:06:44;95866.81;;;14.45;92.76
62103;BME280;48077;48.104;11.702;2022-07-03T05:09:07;95858.00;;;14.49;92.29
62103;BME280;48077;48.104;11.702;2022-07-03T05:11:31;95862.22;;;14.62;92.70
62103;BME280;48077;48.104;11.702;2022-07-03T05:13:55;95855.69;;;14.75;91.94
62103;BME280;48077;48.104;11.702;2022-07-03T05:16:19;95846.38;;;14.83;92.02
62103;BME280;48077;48.104;11.702;2022-07-03T05:18:42;95797.56;;;14.64;91.84
62103;BME280;48077;48.104;11.702;2022-07-03T05:21:05;95844.47;;;15.05;91.99
62103;BME280;48077;48.104;11.702;2022-07-03T05:23:29;95836.28;;;15.17;92.06
62103;BME280;48077;48.104;11.702;2022-07-03T05:25:52;95849.66;;;15.39;91.83
62103;BME280;48077;48.104;11.702;2022-07-03T05:28:15;95857.09;;;15.59;91.87
62103;BME280;48077;48.104;11.702;2022-07-03T05:30:39;95845.34;;;15.65;92.01
62103;BME280;48077;48.104;11.702;2022-07-03T05:33:05;95841.97;;;15.75;91.24
62103;BME280;48077;48.104;11.702;2022-07-03T05:35:28;95845.06;;;15.94;91.50
62103;BME280;48077;48.104;11.702;2022-07-03T05:37:51;95868.63;;;16.19;91.02
62103;BME280;48077;48.104;11.702;2022-07-03T05:40:15;95862.50;;;16.29;90.59
62103;BME280;48077;48.104;11.702;2022-07-03T05:42:38;95857.22;;;16.44;90.24
62103;BME280;48077;48.104;11.702;2022-07-03T05:45:03;95863.78;;;16.64;90.09
62103;BME280;48077;48.104;11.702;2022-07-03T05:47:26;95857.66;;;16.78;89.45
62103;BME280;48077;48.104;11.702;2022-07-03T05:49:50;95858.84;;;16.98;88.19
62103;BME280;48077;48.104;11.702;2022-07-03T05:52:13;95864.31;;;17.24;86.69
62103;BME280;48077;48.104;11.702;2022-07-03T05:54:37;95854.06;;;17.31;86.21
62103;BME280;48077;48.104;11.702;2022-07-03T05:57:00;95832.78;;;17.29;85.22
62103;BME280;48077;48.104;11.702;2022-07-03T05:59:23;95864.66;;;17.63;83.82
62103;BME280;48077;48.104;11.702;2022-07-03T06:01:47;95860.31;;;17.72;83.05
62103;BME280;48077;48.104;11.702;2022-07-03T06:04:10;95843.63;;;17.75;82.21
62103;BME280;48077;48.104;11.702;2022-07-03T06:06:34;95870.34;;;17.97;82.31
62103;BME280;48077;48.104;11.702;2022-07-03T06:08:57;95864.69;;;18.04;81.93
62103;BME280;48077;48.104;11.702;2022-07-03T06:11:20;95877.34;;;18.24;78.90
62103;BME280;48077;48.104;11.702;2022-07-03T06:13:44;95877.31;;;18.39;78.53
62103;BME280;48077;48.104;11.702;2022-07-03T06:16:07;95877.88;;;18.47;77.75
62103;BME280;48077;48.104;11.702;2022-07-03T06:18:31;95872.44;;;18.52;77.84
62103;BME280;48077;48.104;11.702;2022-07-03T06:20:54;95884.28;;;18.66;78.02
62103;BME280;48077;48.104;11.702;2022-07-03T06:23:18;95856.19;;;18.67;78.17
62103;BME280;48077;48.104;11.702;2022-07-03T06:25:41;95867.50;;;18.85;77.18
62103;BME280;48077;48.104;11.702;2022-07-03T06:28:04;95858.06;;;18.82;75.79
62103;BME280;48077;48.104;11.702;2022-07-03T06:30:28;95859.63;;;18.93;75.70
62103;BME280;48077;48.104;11.702;2022-07-03T06:32:51;95864.41;;;19.17;74.33
62103;BME280;48077;48.104;11.702;2022-07-03T06:35:15;95843.31;;;19.19;72.94
62103;BME280;48077;48.104;11.702;2022-07-03T06:37:38;95854.81;;;19.40;72.10
62103;BME280;48077;48.104;11.702;2022-07-03T06:40:02;95846.91;;;19.49;70.91
62103;BME280;48077;48.104;11.702;2022-07-03T06:42:26;95869.78;;;19.72;69.71
62103;BME280;48077;48.104;11.702;2022-07-03T06:44:49;95863.25;;;19.78;69.05
62103;BME280;48077;48.104;11.702;2022-07-03T06:47:12;95865.31;;;19.91;69.22
62103;BME280;48077;48.104;11.702;2022-07-03T06:49:36;95856.09;;;19.92;69.53
62103;BME280;48077;48.104;11.702;2022-07-03T06:51:59;95861.91;;;20.10;69.17
62103;BME280;48077;48.104;11.702;2022-07-03T06:54:23;95868.63;;;20.17;68.56
62103;BME280;48077;48.104;11.702;2022-07-03T06:56:46;95868.78;;;20.31;67.83
62103;BME280;48077;48.104;11.702;2022-07-03T06:59:09;95865.47;;;20.34;66.68
62103;BME280;48077;48.104;11.702;2022-07-03T07:01:33;95865.84;;;20.52;64.00
62103;BME280;48077;48.104;11.702;2022-07-03T07:03:56;95873.63;;;20.64;63.87
62103;BME280;48077;48.104;11.702;2022-07-03T07:06:20;95854.91;;;20.62;64.37
62103;BME280;48077;48.104;11.702;2022-07-03T07:08:43;95869.38;;;20.81;64.39
62103;BME280;48077;48.104;11.702;2022-07-03T07:11:07;95861.97;;;20.87;64.20
62103;BME280;48077;48.104;11.702;2022-07-03T07:13:30;95868.28;;;21.01;63.48
62103;BME280;48077;48.104;11.702;2022-07-03T07:15:54;95862.66;;;20.98;63.26
62103;BME280;48077;48.104;11.702;2022-07-03T07:18:17;95861.72;;;21.08;62.40
62103;BME280;48077;48.104;11.702;2022-07-03T07:20:40;95871.13;;;21.15;62.81
62103;BME280;48077;48.104;11.702;2022-07-03T07:23:04;95850.00;;;21.12;61.23
62103;BME280;48077;48.104;11.702;2022-07-03T07:25:27;95840.69;;;21.18;61.93
62103;BME280;48077;48.104;11.702;2022-07-03T07:27:50;95857.34;;;21.31;62.39
62103;BME280;48077;48.104;11.702;2022-07-03T07:30:14;95854.75;;;21.45;61.36
62103;BME280;48077;48.104;11.702;2022-07-03T07:35:00;95856.44;;;21.59;61.37
62103;BME280;48077;48.104;11.702;2022-07-03T07:37:24;95876.44;;;21.82;59.74
62103;BME280;48077;48.104;11.702;2022-07-03T07:39:47;95870.13;;;21.87;60.42
62103;BME280;48077;48.104;11.702;2022-07-03T07:42:10;95848.44;;;21.68;59.96
62103;BME280;48077;48.104;11.702;2022-07-03T07:44:34;95869.03;;;21.88;60.07
62103;BME280;48077;48.104;11.702;2022-07-03T07:46:57;95854.28;;;21.94;58.93
62103;BME280;48077;48.104;11.702;2022-07-03T07:49:20;95861.75;;;22.02;58.33
62103;BME280;48077;48.104;11.702;2022-07-03T07:51:44;95854.00;;;22.10;57.96
62103;BME280;48077;48.104;11.702;2022-07-03T07:54:07;95874.41;;;22.26;57.45
62103;BME280;48077;48.104;11.702;2022-07-03T07:56:30;95871.81;;;22.35;57.51
62103;BME280;48077;48.104;11.702;2022-07-03T07:58:54;95873.22;;;22.32;57.10
62103;BME280;48077;48.104;11.702;2022-07-03T08:01:18;95866.09;;;22.36;57.53
62103;BME280;48077;48.104;11.702;2022-07-03T08:04:00;95870.13;;;22.39;57.42
62103;BME280;48077;48.104;11.702;2022-07-03T08:06:42;95860.47;;;22.47;56.98
62103;BME280;48077;48.104;11.702;2022-07-03T08:09:06;95860.59;;;22.55;57.89
62103;BME280;48077;48.104;11.702;2022-07-03T08:11:29;95862.59;;;22.63;58.48
62103;BME280;48077;48.104;11.702;2022-07-03T08:13:52;95870.56;;;22.74;56.52
62103;BME280;48077;48.104;11.702;2022-07-03T08:16:16;95864.22;;;22.78;55.06
62103;BME280;48077;48.104;11.702;2022-07-03T08:18:40;95861.72;;;22.82;55.40
62103;BME280;48077;48.104;11.702;2022-07-03T08:21:04;95862.19;;;22.98;53.69
62103;BME280;48077;48.104;11.702;2022-07-03T08:23:27;95857.72;;;23.07;51.66
62103;BME280;48077;48.104;11.702;2022-07-03T08:25:51;95866.59;;;23.13;52.28
62103;BME280;48077;48.104;11.702;2022-07-03T08:28:14;95845.81;;;23.03;52.03
62103;BME280;48077;48.104;11.702;2022-07-03T08:30:37;95861.22;;;23.21;52.07
62103;BME280;48077;48.104;11.702;2022-07-03T08:33:01;95861.22;;;23.21;52.35
62103;BME280;48077;48.104;11.702;2022-07-03T08:35:25;95832.00;;;22.99;51.05
62103;BME280;48077;48.104;11.702;2022-07-03T08:37:49;95846.72;;;23.12;51.37
62103;BME280;48077;48.104;11.702;2022-07-03T08:40:16;95847.63;;;23.21;50.88
62103;BME280;48077;48.104;11.702;2022-07-03T08:42:50;95838.47;;;23.17;51.42
62103;BME280;48077;48.104;11.702;2022-07-03T08:45:19;95859.56;;;23.48;51.66
62103;BME280;48077;48.104;11.702;2022-07-03T08:47:44;95853.41;;;23.56;50.42
62103;BME280;48077;48.104;11.702;2022-07-03T08:50:10;95849.44;;;23.62;51.12
62103;BME280;48077;48.104;11.702;2022-07-03T08:52:35;95844.31;;;23.61;49.45
62103;BME280;48077;48.104;11.702;2022-07-03T08:54:58;95848.88;;;23.74;48.66
62103;BME280;48077;48.104;11.702;2022-07-03T08:57:23;95825.91;;;23.67;48.03
62103;BME280;48077;48.104;11.702;2022-07-03T08:59:52;95829.25;;;23.77;47.67
62103;BME280;48077;48.104;11.702;2022-07-03T09:02:15;95856.81;;;23.98;46.91
62103;BME280;48077;48.104;11.702;2022-07-03T09:04:39;95848.63;;;23.98;47.38
62103;BME280;48077;48.104;11.702;2022-07-03T09:07:06;95844.03;;;24.08;48.02
62103;BME280;48077;48.104;11.702;2022-07-03T09:09:32;95841.84;;;24.18;46.60
62103;BME280;48077;48.104;11.702;2022-07-03T09:11:55;95853.53;;;24.41;46.75
62103;BME280;48077;48.104;11.702;2022-07-03T09:14:19;95840.97;;;24.54;45.83
62103;BME280;48077;48.104;11.702;2022-07-03T09:16:42;95850.03;;;24.72;47.68
62103;BME280;48077;48.104;11.702;2022-07-03T09:19:06;95837.38;;;24.76;47.18
62103;BME280;48077;48.104;11.702;2022-07-03T09:21:39;95822.25;;;24.70;44.22
62103;BME280;48077;48.104;11.702;2022-07-03T09:24:05;95850.28;;;25.02;46.40
62103;BME280;48077;48.104;11.702;2022-07-03T09:26:29;95835.84;;;25.10;45.84
62103;BME280;48077;48.104;11.702;2022-07-03T09:28:53;95847.94;;;25.18;44.18
62103;BME280;48077;48.104;11.702;2022-07-03T09:31:19;95837.97;;;25.13;43.68
62103;BME280;48077;48.104;11.702;2022-07-03T09:36:47;95843.19;;;25.41;43.67
62103;BME280;48077;48.104;11.702;2022-07-03T09:39:22;95815.97;;;25.18;42.53
62103;BME280;48077;48.104;11.702;2022-07-03T09:41:56;95839.66;;;25.32;41.02
62103;BME280;48077;48.104;11.702;2022-07-03T09:44:36;95841.72;;;25.35;43.18
62103;BME280;48077;48.104;11.702;2022-07-03T09:52:38;95843.66;;;25.52;40.84
62103;BME280;48077;48.104;11.702;2022-07-03T09:57:40;95845.47;;;25.74;39.86
62103;BME280;48077;48.104;11.702;2022-07-03T10:10:20;95820.22;;;26.12;37.68
62103;BME280;48077;48.104;11.702;2022-07-03T10:12:45;95824.53;;;26.21;36.11
62103;BME280;48077;48.104;11.702;2022-07-03T10:15:09;95807.03;;;26.14;36.49
62103;BME280;48077;48.104;11.702;2022-07-03T10:17:33;95825.63;;;26.29;35.76
62103;BME280;48077;48.104;11.702;2022-07-03T10:19:57;95824.81;;;26.37;35.22
62103;BME280;48077;48.104;11.702;2022-07-03T10:22:22;95821.72;;;26.48;35.92
62103;BME280;48077;48.104;11.702;2022-07-03T10:24:48;95817.84;;;26.66;36.32
62103;BME280;48077;48.104;11.702;2022-07-03T10:27:12;95804.09;;;26.75;37.13
62103;BME280;48077;48.104;11.702;2022-07-03T10:29:36;95798.00;;;26.78;36.33
62103;BME280;48077;48.104;11.702;2022-07-03T10:32:00;95776.94;;;26.70;34.66
62103;BME280;48077;48.104;11.702;2022-07-03T10:34:24;95792.78;;;26.85;35.17
62103;BME280;48077;48.104;11.702;2022-07-03T10:37:02;95814.56;;;27.11;32.61
62103;BME280;48077;48.104;11.702;2022-07-03T10:39:44;95807.28;;;27.15;32.52
62103;BME280;48077;48.104;11.702;2022-07-03T10:42:17;95808.41;;;27.23;33.44
62103;BME280;48077;48.104;11.702;2022-07-03T10:45:10;95806.41;;;27.32;32.34
62103;BME280;48077;48.104;11.702;2022-07-03T10:47:48;95808.69;;;27.51;32.19
62103;BME280;48077;48.104;11.702;2022-07-03T10:50:22;95795.91;;;27.55;31.58
62103;BME280;48077;48.104;11.702;2022-07-03T10:52:46;95813.81;;;27.74;32.30
62103;BME280;48077;48.104;11.702;2022-07-03T10:55:11;95816.31;;;27.88;32.63
62103;BME280;48077;48.104;11.702;2022-07-03T10:57:36;95782.47;;;27.83;33.14
62103;BME280;48077;48.104;11.702;2022-07-03T11:00:00;95802.53;;;27.96;33.58
62103;BME280;48077;48.104;11.702;2022-07-03T11:02:28;95808.34;;;27.95;30.56
62103;BME280;48077;48.104;11.702;2022-07-03T11:07:20;95804.25;;;28.01;29.95
62103;BME280;48077;48.104;11.702;2022-07-03T11:09:43;95804.03;;;28.06;29.07
62103;BME280;48077;48.104;11.702;2022-07-03T11:12:07;95791.75;;;27.91;29.17
62103;BME280;48077;48.104;11.702;2022-07-03T11:14:30;95783.53;;;27.91;28.54
62103;BME280;48077;48.104;11.702;2022-07-03T11:17:16;95786.19;;;28.00;30.56
62103;BME280;48077;48.104;11.702;2022-07-03T11:19:39;95770.44;;;27.97;30.55
62103;BME280;48077;48.104;11.702;2022-07-03T11:22:11;95776.28;;;28.08;29.83
62103;BME280;48077;48.104;11.702;2022-07-03T11:24:45;95778.97;;;28.29;30.46
62103;BME280;48077;48.104;11.702;2022-07-03T11:27:20;95777.97;;;28.45;28.31
62103;BME280;48077;48.104;11.702;2022-07-03T11:29:58;95772.66;;;28.61;28.25
62103;BME280;48077;48.104;11.702;2022-07-03T11:32:44;95771.63;;;28.78;30.04
62103;BME280;48077;48.104;11.702;2022-07-03T11:38:13;95779.84;;;28.91;27.44
62103;BME280;48077;48.104;11.702;2022-07-03T11:40:41;95773.56;;;29.02;28.52
62103;BME280;48077;48.104;11.702;2022-07-03T11:43:05;95774.81;;;28.93;25.80
62103;BME280;48077;48.104;11.702;2022-07-03T11:45:29;95770.81;;;29.02;27.13
62103;BME280;48077;48.104;11.702;2022-07-03T11:47:53;95751.63;;;29.15;27.93
62103;BME280;48077;48.104;11.702;2022-07-03T11:50:16;95759.69;;;29.36;27.39
62103;BME280;48077;48.104;11.702;2022-07-03T11:52:40;95743.53;;;29.34;27.11
62103;BME280;48077;48.104;11.702;2022-07-03T11:55:03;95742.84;;;29.37;26.45
62103;BME280;48077;48.104;11.702;2022-07-03T11:57:27;95746.56;;;29.57;28.31
62103;BME280;48077;48.104;11.702;2022-07-03T11:59:54;95753.72;;;29.46;26.04
62103;BME280;48077;48.104;11.702;2022-07-03T12:02:26;95739.72;;;29.51;26.12
62103;BME280;48077;48.104;11.702;2022-07-03T12:04:49;95737.47;;;29.69;26.48
62103;BME280;48077;48.104;11.702;2022-07-03T12:07:14;95729.34;;;29.73;26.35
62103;BME280;48077;48.104;11.702;2022-07-03T12:09:38;95741.47;;;30.00;26.31
62103;BME280;48077;48.104;11.702;2022-07-03T12:12:08;95740.00;;;30.18;26.41
62103;BME280;48077;48.104;11.702;2022-07-03T12:14:48;95726.28;;;30.34;27.51
62103;BME280;48077;48.104;11.702;2022-07-03T12:17:20;95749.28;;;30.58;26.25
62103;BME280;48077;48.104;11.702;2022-07-03T12:19:50;95734.28;;;30.71;25.65
62103;BME280;48077;48.104;11.702;2022-07-03T12:22:31;95745.94;;;31.00;24.80
62103;BME280;48077;48.104;11.702;2022-07-03T12:25:00;95739.69;;;31.19;24.56
62103;BME280;48077;48.104;11.702;2022-07-03T12:27:24;95727.16;;;31.21;24.07
62103;BME280;48077;48.104;11.702;2022-07-03T12:29:48;95727.66;;;31.27;26.01
62103;BME280;48077;48.104;11.702;2022-07-03T12:32:12;95736.31;;;31.25;24.35
62103;BME280;48077;48.104;11.702;2022-07-03T12:34:36;95730.84;;;31.29;24.70
62103;BME280;48077;48.104;11.702;2022-07-03T12:37:00;95708.75;;;31.25;24.54
62103;BME280;48077;48.104;11.702;2022-07-03T12:39:24;95736.00;;;31.46;24.53
62103;BME280;48077;48.104;11.702;2022-07-03T12:42:16;95721.94;;;31.71;24.77
62103;BME280;48077;48.104;11.702;2022-07-03T12:44:40;95728.56;;;31.90;24.49
62103;BME280;48077;48.104;11.702;2022-07-03T12:47:04;95720.53;;;31.81;24.57
62103;BME280;48077;48.104;11.702;2022-07-03T12:49:28;95720.78;;;31.95;24.11
62103;BME280;48077;48.104;11.702;2022-07-03T12:51:53;95702.25;;;31.73;24.28
62103;BME280;48077;48.104;11.702;2022-07-03T12:54:22;95722.13;;;32.01;24.92
62103;BME280;48077;48.104;11.702;2022-07-03T13:02:29;95706.38;;;32.25;23.82
62103;BME280;48077;48.104;11.702;2022-07-03T13:04:52;95714.69;;;32.52;25.64
62103;BME280;48077;48.104;11.702;2022-07-03T13:07:16;95710.75;;;32.26;23.06
62103;BME280;48077;48.104;11.702;2022-07-03T13:09:40;95706.63;;;32.39;23.17
62103;BME280;48077;48.104;11.702;2022-07-03T13:12:05;95703.75;;;32.55;23.34
62103;BME280;48077;48.104;11.702;2022-07-03T13:14:29;95690.28;;;32.77;23.68
62103;BME280;48077;48.104;11.702;2022-07-03T13:16:55;95697.47;;;33.08;24.25
62103;BME280;48077;48.104;11.702;2022-07-03T13:19:20;95671.28;;;33.29;24.28
62103;BME280;48077;48.104;11.702;2022-07-03T13:21:44;95670.31;;;33.44;24.60
62103;BME280;48077;48.104;11.702;2022-07-03T13:24:09;95696.72;;;33.11;21.93
62103;BME280;48077;48.104;11.702;2022-07-03T13:26:33;95681.03;;;33.19;25.38
62103;BME280;48077;48.104;11.702;2022-07-03T13:28:57;95662.16;;;33.24;24.78
62103;BME280;48077;48.104;11.702;2022-07-03T13:31:20;95671.13;;;33.48;25.31
62103;BME280;48077;48.104;11.702;2022-07-03T13:33:43;95685.47;;;33.57;24.76
62103;BME280;48077;48.104;11.702;2022-07-03T13:36:07;95678.16;;;33.72;22.29
62103;BME280;48077;48.104;11.702;2022-07-03T13:38:30;95670.56;;;33.65;22.75